sensor_id;sensor_type;location;lat;lon;timestamp;pressure;altitude;pressure_sealevel;temperature;humidity
60725;BME280;59881;36.722;-4.462;2023-03-13T00:00:14;101259.25;;;15.11;71.81
60725;BME280;59881;36.722;-4.462;2023-03-13T00:02:41;100803.28;;;12.20;71.83
60725;BME280;59881;36.722;-4.462;2023-03-13T00:05:10;101208.69;;;15.02;71.92
60725;BME280;59881;36.722;-4.462;2023-03-13T00:07:36;101093.19;;;14.04;71.86
60725;BME280;59881;36.722;-4.462;2023-03-13T00:10:01;101213.84;;;14.92;72.07
60725;BME280;59881;36.722;-4.462;2023-03-13T00:12:27;100900.91;;;13.20;72.08
60725;BME280;59881;36.722;-4.462;2023-03-13T00:14:52;101102.31;;;14.36;71.92
60725;BME280;59881;36.722;-4.462;2023-03-13T00:17:18;101128.50;;;14.52;72.33
60725;BME280;59881;36.722;-4.462;2023-03-13T00:19:43;100607.28;;;11.30;71.92
60725;BME280;59881;36.722;-4.462;2023-03-13T00:22:09;101173.81;;;14.73;72.31
60725;BME280;59881;36.722;-4.462;2023-03-13T00:24:34;100686.84;;;10.98;72.12
60725;BME280;59881;36.722;-4.462;2023-03-13T00:27:00;100573.91;;;11.05;72.32
60725;BME280;59881;36.722;-4.462;2023-03-13T00:29:28;100897.19;;;12.25;72.29
60725;BME280;59881;36.722;-4.462;2023-03-13T00:31:54;101175.44;;;14.62;72.66
60725;BME280;59881;36.722;-4.462;2023-03-13T00:34:19;100982.06;;;13.43;72.75
60725;BME280;59881;36.722;-4.462;2023-03-13T00:36:45;101252.78;;;14.56;72.79
60725;BME280;59881;36.722;-4.462;2023-03-13T00:39:10;100670.50;;;11.32;72.61
60725;BME280;59881;36.722;-4.462;2023-03-13T00:41:36;100983.56;;;12.74;72.77
60725;BME280;59881;36.722;-4.462;2023-03-13T00:44:02;101170.53;;;14.45;73.01
60725;BME280;59881;36.722;-4.462;2023-03-13T00:46:29;101073.38;;;13.25;73.09
60725;BME280;59881;36.722;-4.462;2023-03-13T00:48:56;100903.09;;;12.78;73.02
60725;BME280;59881;36.722;-4.462;2023-03-13T00:51:22;101158.25;;;14.44;73.24
60725;BME280;59881;36.722;-4.462;2023-03-13T00:53:48;100051.28;;;7.44;72.93
60725;BME280;59881;36.722;-4.462;2023-03-13T00:56:16;101166.94;;;14.46;73.36
60725;BME280;59881;36.722;-4.462;2023-03-13T00:58:43;101168.63;;;14.47;73.34
60725;BME280;59881;36.722;-4.462;2023-03-13T01:01:15;101198.75;;;14.46;72.94
60725;BME280;59881;36.722;-4.462;2023-03-13T01:03:42;101203.44;;;14.42;73.32
60725;BME280;59881;36.722;-4.462;2023-03-13T01:06:10;101173.28;;;14.43;73.49
60725;BME280;59881;36.722;-4.462;2023-03-13T01:08:36;100713.47;;;11.71;73.22
60725;BME280;59881;36.722;-4.462;2023-03-13T01:11:10;100897.28;;;12.73;73.26
60725;BME280;59881;36.722;-4.462;2023-03-13T01:13:36;100657.31;;;10.28;73.01
60725;BME280;59881;36.722;-4.462;2023-03-13T01:16:12;100651.28;;;10.91;73.43
60725;BME280;59881;36.722;-4.462;2023-03-13T01:18:42;100912.53;;;12.69;73.35
60725;BME280;59881;36.722;-4.462;2023-03-13T01:21:08;101196.50;;;14.28;73.58
60725;BME280;59881;36.722;-4.462;2023-03-13T01:23:34;101188.16;;;14.22;73.60
60725;BME280;59881;36.722;-4.462;2023-03-13T01:26:00;101101.09;;;13.69;73.20
60725;BME280;59881;36.722;-4.462;2023-03-13T01:28:26;101177.38;;;14.12;73.97
60725;BME280;59881;36.722;-4.462;2023-03-13T01:30:52;101181.19;;;13.60;73.95
60725;BME280;59881;36.722;-4.462;2023-03-13T01:33:18;101181.25;;;14.08;74.19
60725;BME280;59881;36.722;-4.462;2023-03-13T01:35:44;101171.66;;;13.57;74.13
60725;BME280;59881;36.722;-4.462;2023-03-13T01:38:09;101240.91;;;14.01;74.25
60725;BME280;59881;36.722;-4.462;2023-03-13T01:40:43;100892.34;;;11.80;74.14
60725;BME280;59881;36.722;-4.462;2023-03-13T01:43:29;100744.03;;;11.36;74.52
60725;BME280;59881;36.722;-4.462;2023-03-13T01:48:39;101184.09;;;14.05;74.76
60725;BME280;59881;36.722;-4.462;2023-03-13T01:51:13;100665.66;;;10.87;74.09
60725;BME280;59881;36.722;-4.462;2023-03-13T01:53:41;101167.41;;;13.92;74.45
60725;BME280;59881;36.722;-4.462;2023-03-13T01:56:13;101166.47;;;13.93;74.45
60725;BME280;59881;36.722;-4.462;2023-03-13T01:58:41;100850.59;;;11.47;75.06
60725;BME280;59881;36.722;-4.462;2023-03-13T02:01:08;101032.13;;;12.47;75.05
60725;BME280;59881;36.722;-4.462;2023-03-13T02:03:35;100962.94;;;12.66;74.88
60725;BME280;59881;36.722;-4.462;2023-03-13T02:06:03;101292.13;;;14.01;75.07
60725;BME280;59881;36.722;-4.462;2023-03-13T02:08:42;100630.44;;;10.63;74.37
60725;BME280;59881;36.722;-4.462;2023-03-13T02:11:21;101072.13;;;13.18;74.74
60725;BME280;59881;36.722;-4.462;2023-03-13T02:13:49;100719.97;;;10.50;74.59
60725;BME280;59881;36.722;-4.462;2023-03-13T02:16:16;100612.06;;;10.48;74.56
60725;BME280;59881;36.722;-4.462;2023-03-13T02:18:43;100863.06;;;11.45;74.86
60725;BME280;59881;36.722;-4.462;2023-03-13T02:21:15;100406.19;;;9.52;74.89
60725;BME280;59881;36.722;-4.462;2023-03-13T02:23:52;101130.72;;;13.98;75.29
60725;BME280;59881;36.722;-4.462;2023-03-13T02:26:21;100672.06;;;11.22;74.61
60725;BME280;59881;36.722;-4.462;2023-03-13T02:28:47;100461.50;;;8.10;74.72
60725;BME280;59881;36.722;-4.462;2023-03-13T02:31:12;101115.69;;;13.99;74.93
60725;BME280;59881;36.722;-4.462;2023-03-13T02:33:40;101198.75;;;13.98;74.24
60725;BME280;59881;36.722;-4.462;2023-03-13T02:36:07;100978.13;;;12.26;74.30
60725;BME280;59881;36.722;-4.462;2023-03-13T02:38:38;100830.94;;;12.28;74.39
60725;BME280;59881;36.722;-4.462;2023-03-13T02:41:07;100728.28;;;11.73;74.13
60725;BME280;59881;36.722;-4.462;2023-03-13T02:43:37;100525.47;;;10.44;74.17
60725;BME280;59881;36.722;-4.462;2023-03-13T02:46:09;101102.38;;;14.12;74.23
60725;BME280;59881;36.722;-4.462;2023-03-13T02:48:44;100835.00;;;11.69;73.67
60725;BME280;59881;36.722;-4.462;2023-03-13T02:51:39;101113.19;;;14.08;73.69
60725;BME280;59881;36.722;-4.462;2023-03-13T02:54:08;101102.09;;;14.03;73.39
60725;BME280;59881;36.722;-4.462;2023-03-13T02:56:37;100955.19;;;13.13;73.18
60725;BME280;59881;36.722;-4.462;2023-03-13T02:59:05;101097.03;;;14.00;73.29
60725;BME280;59881;36.722;-4.462;2023-03-13T03:01:31;101206.47;;;14.01;73.24
60725;BME280;59881;36.722;-4.462;2023-03-13T03:03:57;100541.91;;;10.60;73.06
60725;BME280;59881;36.722;-4.462;2023-03-13T03:06:23;101201.41;;;13.98;73.55
60725;BME280;59881;36.722;-4.462;2023-03-13T03:08:48;101235.00;;;13.97;73.71
60725;BME280;59881;36.722;-4.462;2023-03-13T03:11:14;100751.97;;;11.86;73.38
60725;BME280;59881;36.722;-4.462;2023-03-13T03:13:40;101094.56;;;13.86;73.73
60725;BME280;59881;36.722;-4.462;2023-03-13T03:16:10;101097.88;;;13.77;73.78
60725;BME280;59881;36.722;-4.462;2023-03-13T03:18:36;100586.38;;;10.12;73.47
60725;BME280;59881;36.722;-4.462;2023-03-13T03:21:03;101107.56;;;13.65;74.19
60725;BME280;59881;36.722;-4.462;2023-03-13T03:23:33;101115.22;;;13.57;74.12
60725;BME280;59881;36.722;-4.462;2023-03-13T03:26:00;101111.56;;;13.47;74.13
60725;BME280;59881;36.722;-4.462;2023-03-13T03:28:25;100691.47;;;10.82;74.17
60725;BME280;59881;36.722;-4.462;2023-03-13T03:30:51;100401.75;;;8.44;74.25
60725;BME280;59881;36.722;-4.462;2023-03-13T03:33:19;101094.38;;;12.38;74.55
60725;BME280;59881;36.722;-4.462;2023-03-13T03:35:45;100817.25;;;11.58;74.76
60725;BME280;59881;36.722;-4.462;2023-03-13T03:38:11;100702.06;;;10.01;74.69
60725;BME280;59881;36.722;-4.462;2023-03-13T03:40:37;100435.25;;;9.23;74.65
60725;BME280;59881;36.722;-4.462;2023-03-13T03:43:02;100964.03;;;10.92;74.95
60725;BME280;59881;36.722;-4.462;2023-03-13T03:45:28;100974.53;;;12.27;75.27
60725;BME280;59881;36.722;-4.462;2023-03-13T03:47:53;100513.59;;;9.58;75.28
60725;BME280;59881;36.722;-4.462;2023-03-13T03:50:19;101100.91;;;13.22;75.60
60725;BME280;59881;36.722;-4.462;2023-03-13T03:52:44;100422.31;;;8.79;75.49
60725;BME280;59881;36.722;-4.462;2023-03-13T03:55:10;101208.53;;;13.35;75.90
60725;BME280;59881;36.722;-4.462;2023-03-13T03:57:35;100503.81;;;9.60;75.62
60725;BME280;59881;36.722;-4.462;2023-03-13T04:00:01;100698.44;;;10.83;75.56
60725;BME280;59881;36.722;-4.462;2023-03-13T04:02:26;101136.69;;;13.02;76.40
60725;BME280;59881;36.722;-4.462;2023-03-13T04:04:52;101234.16;;;13.34;76.17
60725;BME280;59881;36.722;-4.462;2023-03-13T04:07:17;100834.31;;;11.40;76.26
60725;BME280;59881;36.722;-4.462;2023-03-13T04:09:43;100805.88;;;11.58;76.37
60725;BME280;59881;36.722;-4.462;2023-03-13T04:12:08;100484.09;;;9.80;75.74
60725;BME280;59881;36.722;-4.462;2023-03-13T04:14:34;101047.66;;;13.27;76.17
60725;BME280;59881;36.722;-4.462;2023-03-13T04:16:59;101058.09;;;13.41;76.31
60725;BME280;59881;36.722;-4.462;2023-03-13T04:19:25;101073.78;;;13.44;76.24
60725;BME280;59881;36.722;-4.462;2023-03-13T04:21:51;100996.91;;;12.08;75.81
60725;BME280;59881;36.722;-4.462;2023-03-13T04:24:16;100710.25;;;10.90;75.45
60725;BME280;59881;36.722;-4.462;2023-03-13T04:26:42;100606.31;;;9.47;75.29
60725;BME280;59881;36.722;-4.462;2023-03-13T04:29:08;101227.50;;;13.29;75.62
60725;BME280;59881;36.722;-4.462;2023-03-13T04:31:34;101075.03;;;13.26;75.58
60725;BME280;59881;36.722;-4.462;2023-03-13T04:33:59;100508.56;;;9.41;75.47
60725;BME280;59881;36.722;-4.462;2023-03-13T04:36:25;100221.66;;;8.00;75.47
60725;BME280;59881;36.722;-4.462;2023-03-13T04:38:50;100589.25;;;10.22;75.78
60725;BME280;59881;36.722;-4.462;2023-03-13T04:41:16;100507.00;;;9.65;75.95
60725;BME280;59881;36.722;-4.462;2023-03-13T04:43:41;100402.59;;;8.44;75.38
60725;BME280;59881;36.722;-4.462;2023-03-13T04:46:07;100593.28;;;10.00;75.76
60725;BME280;59881;36.722;-4.462;2023-03-13T04:48:32;101140.81;;;12.94;76.09
60725;BME280;59881;36.722;-4.462;2023-03-13T04:50:58;100513.13;;;9.39;75.89
60725;BME280;59881;36.722;-4.462;2023-03-13T04:53:23;100733.00;;;10.39;76.11
60725;BME280;59881;36.722;-4.462;2023-03-13T04:55:50;100931.28;;;11.76;76.46
60725;BME280;59881;36.722;-4.462;2023-03-13T04:58:15;101112.78;;;12.78;76.57
60725;BME280;59881;36.722;-4.462;2023-03-13T05:00:41;101276.06;;;12.75;76.74
60725;BME280;59881;36.722;-4.462;2023-03-13T05:03:07;101161.84;;;12.70;76.93
60725;BME280;59881;36.722;-4.462;2023-03-13T05:05:33;100734.38;;;10.03;76.93
60725;BME280;59881;36.722;-4.462;2023-03-13T05:08:00;101125.16;;;12.65;77.08
60725;BME280;59881;36.722;-4.462;2023-03-13T05:10:26;100693.38;;;9.43;76.95
60725;BME280;59881;36.722;-4.462;2023-03-13T05:12:51;101115.31;;;12.67;77.58
60725;BME280;59881;36.722;-4.462;2023-03-13T05:15:17;101013.78;;;11.93;77.81
60725;BME280;59881;36.722;-4.462;2023-03-13T05:17:43;100905.97;;;10.80;77.70
60725;BME280;59881;36.722;-4.462;2023-03-13T05:20:09;101108.56;;;12.89;78.16
60725;BME280;59881;36.722;-4.462;2023-03-13T05:22:36;100613.28;;;9.90;78.00
60725;BME280;59881;36.722;-4.462;2023-03-13T05:25:02;100330.47;;;8.36;77.27
60725;BME280;59881;36.722;-4.462;2023-03-13T05:27:29;100516.19;;;9.45;76.74
60725;BME280;59881;36.722;-4.462;2023-03-13T05:29:55;101310.28;;;13.03;77.02
60725;BME280;59881;36.722;-4.462;2023-03-13T05:32:20;100345.50;;;8.05;76.62
60725;BME280;59881;36.722;-4.462;2023-03-13T05:34:46;101074.25;;;12.10;76.63
60725;BME280;59881;36.722;-4.462;2023-03-13T05:37:11;100780.19;;;10.69;76.21
60725;BME280;59881;36.722;-4.462;2023-03-13T05:39:37;100496.84;;;9.05;75.79
60725;BME280;59881;36.722;-4.462;2023-03-13T05:42:02;100843.50;;;11.34;75.82
60725;BME280;59881;36.722;-4.462;2023-03-13T05:44:28;101219.84;;;13.11;76.22
60725;BME280;59881;36.722;-4.462;2023-03-13T05:46:54;101184.41;;;13.14;76.27
60725;BME280;59881;36.722;-4.462;2023-03-13T05:49:19;100766.78;;;10.59;75.67
60725;BME280;59881;36.722;-4.462;2023-03-13T05:51:45;100796.63;;;11.12;75.74
60725;BME280;59881;36.722;-4.462;2023-03-13T05:54:10;99919.72;;;5.68;75.21
60725;BME280;59881;36.722;-4.462;2023-03-13T05:56:36;100477.63;;;9.04;75.38
60725;BME280;59881;36.722;-4.462;2023-03-13T05:59:01;101118.41;;;12.87;75.48
60725;BME280;59881;36.722;-4.462;2023-03-13T06:01:27;100928.69;;;10.25;75.34
60725;BME280;59881;36.722;-4.462;2023-03-13T06:03:53;100108.13;;;6.11;75.00
60725;BME280;59881;36.722;-4.462;2023-03-13T06:06:19;101102.94;;;12.55;75.66
60725;BME280;59881;36.722;-4.462;2023-03-13T06:08:44;100198.06;;;6.55;75.58
60725;BME280;59881;36.722;-4.462;2023-03-13T06:11:10;100529.72;;;8.98;75.83
60725;BME280;59881;36.722;-4.462;2023-03-13T06:13:35;100963.53;;;11.54;76.34
60725;BME280;59881;36.722;-4.462;2023-03-13T06:16:01;100551.19;;;9.04;76.22
60725;BME280;59881;36.722;-4.462;2023-03-13T06:18:26;100648.84;;;9.54;76.54
60725;BME280;59881;36.722;-4.462;2023-03-13T06:21:00;101262.03;;;12.47;76.82
60725;BME280;59881;36.722;-4.462;2023-03-13T06:23:26;101132.72;;;12.44;76.99
60725;BME280;59881;36.722;-4.462;2023-03-13T06:25:52;101137.09;;;12.45;77.07
60725;BME280;59881;36.722;-4.462;2023-03-13T06:28:17;100596.53;;;8.94;77.04
60725;BME280;59881;36.722;-4.462;2023-03-13T06:30:43;100956.78;;;11.23;77.21
60725;BME280;59881;36.722;-4.462;2023-03-13T06:33:08;100561.84;;;7.99;76.87
60725;BME280;59881;36.722;-4.462;2023-03-13T06:35:34;100760.88;;;10.00;77.00
60725;BME280;59881;36.722;-4.462;2023-03-13T06:38:00;100470.91;;;8.28;76.89
60725;BME280;59881;36.722;-4.462;2023-03-13T06:40:25;101039.13;;;11.95;77.51
60725;BME280;59881;36.722;-4.462;2023-03-13T06:42:51;100525.97;;;9.02;77.07
60725;BME280;59881;36.722;-4.462;2023-03-13T06:45:16;100754.75;;;10.55;77.30
60725;BME280;59881;36.722;-4.462;2023-03-13T06:47:42;100851.69;;;10.50;77.12
60725;BME280;59881;36.722;-4.462;2023-03-13T06:50:08;101044.38;;;11.83;76.72
60725;BME280;59881;36.722;-4.462;2023-03-13T06:52:33;101108.19;;;13.32;76.66
60725;BME280;59881;36.722;-4.462;2023-03-13T06:54:59;100601.19;;;8.74;75.81
60725;BME280;59881;36.722;-4.462;2023-03-13T06:57:25;101100.25;;;13.93;75.75
60725;BME280;59881;36.722;-4.462;2023-03-13T06:59:51;100659.78;;;11.59;75.17
60725;BME280;59881;36.722;-4.462;2023-03-13T07:02:16;100944.25;;;14.12;73.60
60725;BME280;59881;36.722;-4.462;2023-03-13T07:04:42;101130.41;;;16.07;71.43
60725;BME280;59881;36.722;-4.462;2023-03-13T07:07:08;100951.09;;;16.42;67.43
60725;BME280;59881;36.722;-4.462;2023-03-13T07:09:34;100379.97;;;14.12;61.92
60725;BME280;59881;36.722;-4.462;2023-03-13T07:11:59;100586.84;;;15.84;57.96
60725;BME280;59881;36.722;-4.462;2023-03-13T07:14:25;101083.78;;;20.29;54.74
60725;BME280;59881;36.722;-4.462;2023-03-13T07:16:50;101075.97;;;20.87;51.63
60725;BME280;59881;36.722;-4.462;2023-03-13T07:19:16;100467.44;;;17.50;50.16
60725;BME280;59881;36.722;-4.462;2023-03-13T07:21:42;100914.13;;;20.47;49.09
60725;BME280;59881;36.722;-4.462;2023-03-13T07:24:08;101084.50;;;21.93;47.65
60725;BME280;59881;36.722;-4.462;2023-03-13T07:26:34;101089.66;;;22.51;46.41
60725;BME280;59881;36.722;-4.462;2023-03-13T07:28:59;100764.81;;;21.33;44.67
60725;BME280;59881;36.722;-4.462;2023-03-13T07:31:25;101089.34;;;24.57;42.11
60725;BME280;59881;36.722;-4.462;2023-03-13T07:33:52;100619.34;;;22.56;39.63
60725;BME280;59881;36.722;-4.462;2023-03-13T07:36:21;101041.03;;;25.73;37.81
60725;BME280;59881;36.722;-4.462;2023-03-13T07:38:50;101089.94;;;26.56;36.02
60725;BME280;59881;36.722;-4.462;2023-03-13T07:41:17;100725.09;;;24.98;34.97
60725;BME280;59881;36.722;-4.462;2023-03-13T07:43:43;101078.00;;;27.95;33.82
60725;BME280;59881;36.722;-4.462;2023-03-13T07:46:11;100800.25;;;26.87;32.73
60725;BME280;59881;36.722;-4.462;2023-03-13T07:48:40;101090.75;;;29.58;31.85
60725;BME280;59881;36.722;-4.462;2023-03-13T07:51:11;101098.03;;;30.27;29.90
60725;BME280;59881;36.722;-4.462;2023-03-13T07:53:37;100785.53;;;28.85;29.24
60725;BME280;59881;36.722;-4.462;2023-03-13T07:56:10;101075.44;;;31.07;28.61
60725;BME280;59881;36.722;-4.462;2023-03-13T07:58:37;101052.66;;;31.50;27.37
60725;BME280;59881;36.722;-4.462;2023-03-13T08:01:15;101105.84;;;31.95;27.39
60725;BME280;59881;36.722;-4.462;2023-03-13T08:03:41;101077.69;;;32.36;26.85
60725;BME280;59881;36.722;-4.462;2023-03-13T08:06:12;101115.72;;;32.08;26.26
60725;BME280;59881;36.722;-4.462;2023-03-13T08:08:39;101010.91;;;30.96;26.79
60725;BME280;59881;36.722;-4.462;2023-03-13T08:11:07;101103.50;;;31.99;26.32
60725;BME280;59881;36.722;-4.462;2023-03-13T08:13:34;101126.78;;;32.48;26.36
60725;BME280;59881;36.722;-4.462;2023-03-13T08:16:08;101031.34;;;32.36;25.39
60725;BME280;59881;36.722;-4.462;2023-03-13T08:18:35;101127.66;;;33.01;25.02
60725;BME280;59881;36.722;-4.462;2023-03-13T08:21:06;100940.31;;;32.37;24.59
60725;BME280;59881;36.722;-4.462;2023-03-13T08:23:33;101124.78;;;34.06;23.35
60725;BME280;59881;36.722;-4.462;2023-03-13T08:26:10;101113.88;;;34.78;22.60
60725;BME280;59881;36.722;-4.462;2023-03-13T08:28:37;101119.09;;;33.78;22.89
60725;BME280;59881;36.722;-4.462;2023-03-13T08:31:14;101118.69;;;33.41;23.31
60725;BME280;59881;36.722;-4.462;2023-03-13T08:33:41;101155.31;;;33.05;23.65
60725;BME280;59881;36.722;-4.462;2023-03-13T08:36:12;100871.75;;;31.23;23.60
60725;BME280;59881;36.722;-4.462;2023-03-13T08:38:39;101098.19;;;34.01;22.50
60725;BME280;59881;36.722;-4.462;2023-03-13T08:41:06;100628.97;;;33.08;21.16
60725;BME280;59881;36.722;-4.462;2023-03-13T08:43:33;100763.28;;;36.18;19.02
60725;BME280;59881;36.722;-4.462;2023-03-13T08:45:58;101123.84;;;39.60;17.39
60725;BME280;59881;36.722;-4.462;2023-03-13T08:48:24;101185.97;;;40.55;17.11
60725;BME280;59881;36.722;-4.462;2023-03-13T08:51:10;100833.28;;;39.03;16.59
60725;BME280;59881;36.722;-4.462;2023-03-13T08:53:37;101138.72;;;41.67;15.99
60725;BME280;59881;36.722;-4.462;2023-03-13T08:56:03;101010.41;;;41.17;15.54
60725;BME280;59881;36.722;-4.462;2023-03-13T08:58:30;101015.50;;;41.42;15.13
60725;BME280;59881;36.722;-4.462;2023-03-13T09:01:01;100703.72;;;39.80;15.49
60725;BME280;59881;36.722;-4.462;2023-03-13T09:03:27;101204.66;;;42.91;14.77
60725;BME280;59881;36.722;-4.462;2023-03-13T09:05:53;101146.75;;;42.48;15.07
60725;BME280;59881;36.722;-4.462;2023-03-13T09:08:18;100840.88;;;41.07;14.70
60725;BME280;59881;36.722;-4.462;2023-03-13T09:10:44;100920.16;;;42.00;14.39
60725;BME280;59881;36.722;-4.462;2023-03-13T09:13:09;100688.28;;;41.10;14.46
60725;BME280;59881;36.722;-4.462;2023-03-13T09:15:35;101107.75;;;44.27;13.65
60725;BME280;59881;36.722;-4.462;2023-03-13T09:18:00;101029.84;;;44.32;13.40
60725;BME280;59881;36.722;-4.462;2023-03-13T09:20:26;101155.00;;;45.41;13.19
60725;BME280;59881;36.722;-4.462;2023-03-13T09:22:51;101154.50;;;45.66;13.24
60725;BME280;59881;36.722;-4.462;2023-03-13T09:25:17;100901.00;;;44.50;13.26
60725;BME280;59881;36.722;-4.462;2023-03-13T09:27:42;101121.31;;;46.63;12.18
60725;BME280;59881;36.722;-4.462;2023-03-13T09:30:08;101140.44;;;47.45;11.59
60725;BME280;59881;36.722;-4.462;2023-03-13T09:32:34;100901.88;;;46.10;11.45
60725;BME280;59881;36.722;-4.462;2023-03-13T09:35:00;101093.22;;;47.40;11.76
60725;BME280;59881;36.722;-4.462;2023-03-13T09:37:25;101147.44;;;47.73;11.22
60725;BME280;59881;36.722;-4.462;2023-03-13T09:39:51;101149.03;;;47.61;11.40
60725;BME280;59881;36.722;-4.462;2023-03-13T09:42:19;101138.13;;;48.14;11.76
60725;BME280;59881;36.722;-4.462;2023-03-13T09:44:54;101135.59;;;48.83;10.70
60725;BME280;59881;36.722;-4.462;2023-03-13T09:47:29;101136.53;;;48.87;10.60
60725;BME280;59881;36.722;-4.462;2023-03-13T09:50:04;100945.38;;;48.39;9.99
60725;BME280;59881;36.722;-4.462;2023-03-13T09:52:38;101120.63;;;50.16;9.81
60725;BME280;59881;36.722;-4.462;2023-03-13T09:55:23;100909.69;;;49.33;9.83
60725;BME280;59881;36.722;-4.462;2023-03-13T09:57:56;101122.50;;;51.15;9.00
60725;BME280;59881;36.722;-4.462;2023-03-13T10:00:27;100865.63;;;49.97;10.18
60725;BME280;59881;36.722;-4.462;2023-03-13T10:02:57;101102.66;;;51.66;9.47
60725;BME280;59881;36.722;-4.462;2023-03-13T10:05:28;100902.97;;;50.75;8.94
60725;BME280;59881;36.722;-4.462;2023-03-13T10:08:07;101113.50;;;52.33;8.81
60725;BME280;59881;36.722;-4.462;2023-03-13T10:10:39;101108.78;;;52.67;8.60
60725;BME280;59881;36.722;-4.462;2023-03-13T10:16:09;101099.81;;;53.15;8.02
60725;BME280;59881;36.722;-4.462;2023-03-13T10:18:36;101093.34;;;53.48;8.01
60725;BME280;59881;36.722;-4.462;2023-03-13T10:21:16;101085.53;;;53.72;8.08
60725;BME280;59881;36.722;-4.462;2023-03-13T10:23:47;101116.84;;;54.08;8.27
60725;BME280;59881;36.722;-4.462;2023-03-13T10:26:20;100833.56;;;52.62;8.30
60725;BME280;59881;36.722;-4.462;2023-03-13T10:28:47;100786.75;;;52.81;7.78
60725;BME280;59881;36.722;-4.462;2023-03-13T10:31:26;100765.84;;;53.30;6.64
60725;BME280;59881;36.722;-4.462;2023-03-13T10:34:05;101098.72;;;55.91;6.85
60725;BME280;59881;36.722;-4.462;2023-03-13T10:36:42;101058.34;;;55.87;6.22
60725;BME280;59881;36.722;-4.462;2023-03-13T10:39:17;101100.09;;;57.04;6.42
60725;BME280;59881;36.722;-4.462;2023-03-13T10:41:43;100946.41;;;56.29;5.36
60725;BME280;59881;36.722;-4.462;2023-03-13T10:44:32;101103.69;;;54.89;7.09
60725;BME280;59881;36.722;-4.462;2023-03-13T10:46:59;100891.44;;;49.55;9.30
60725;BME280;59881;36.722;-4.462;2023-03-13T10:49:26;100925.63;;;45.30;11.17
60725;BME280;59881;36.722;-4.462;2023-03-13T10:51:56;101115.91;;;44.00;13.33
60725;BME280;59881;36.722;-4.462;2023-03-13T10:54:34;100888.13;;;41.39;15.27
60725;BME280;59881;36.722;-4.462;2023-03-13T10:57:25;101092.44;;;40.97;15.98
60725;BME280;59881;36.722;-4.462;2023-03-13T10:59:53;100868.22;;;37.12;17.45
60725;BME280;59881;36.722;-4.462;2023-03-13T11:02:45;101103.56;;;35.84;19.98
60725;BME280;59881;36.722;-4.462;2023-03-13T11:05:35;101104.06;;;33.93;21.88
60725;BME280;59881;36.722;-4.462;2023-03-13T11:08:22;100753.22;;;30.49;23.08
60725;BME280;59881;36.722;-4.462;2023-03-13T11:13:28;101089.00;;;31.26;24.58
60725;BME280;59881;36.722;-4.462;2023-03-13T11:15:57;101163.47;;;30.51;25.25
60725;BME280;59881;36.722;-4.462;2023-03-13T11:21:19;101176.53;;;29.65;26.73
60725;BME280;59881;36.722;-4.462;2023-03-13T11:23:55;100794.47;;;27.17;26.71
60725;BME280;59881;36.722;-4.462;2023-03-13T11:26:40;101103.44;;;29.25;26.90
60725;BME280;59881;36.722;-4.462;2023-03-13T11:31:50;101055.06;;;27.84;27.76
60725;BME280;59881;36.722;-4.462;2023-03-13T11:34:32;100943.19;;;27.17;28.02
60725;BME280;59881;36.722;-4.462;2023-03-13T11:37:13;100658.72;;;25.25;28.23
60725;BME280;59881;36.722;-4.462;2023-03-13T11:40:43;101104.47;;;27.93;29.33
60725;BME280;59881;36.722;-4.462;2023-03-13T11:52:17;101107.91;;;27.60;29.84
60725;BME280;59881;36.722;-4.462;2023-03-13T12:00:28;101110.59;;;26.42;31.19
60725;BME280;59881;36.722;-4.462;2023-03-13T12:05:45;100337.00;;;21.25;33.07
60725;BME280;59881;36.722;-4.462;2023-03-13T12:08:40;101163.44;;;25.87;34.00
60725;BME280;59881;36.722;-4.462;2023-03-13T12:14:03;101027.28;;;24.95;35.66
60725;BME280;59881;36.722;-4.462;2023-03-13T12:16:46;101044.94;;;24.38;36.03
60725;BME280;59881;36.722;-4.462;2023-03-13T12:19:26;100302.72;;;20.12;34.27
60725;BME280;59881;36.722;-4.462;2023-03-13T12:21:56;100365.06;;;20.60;33.44
60725;BME280;59881;36.722;-4.462;2023-03-13T12:27:10;101068.38;;;24.67;34.82
60725;BME280;59881;36.722;-4.462;2023-03-13T12:35:23;101055.91;;;23.99;36.43
60725;BME280;59881;36.722;-4.462;2023-03-13T12:40:50;100567.19;;;20.96;40.09
60725;BME280;59881;36.722;-4.462;2023-03-13T12:43:34;101037.94;;;23.91;40.97
60725;BME280;59881;36.722;-4.462;2023-03-13T12:54:17;101024.44;;;23.53;40.33
60725;BME280;59881;36.722;-4.462;2023-03-13T12:59:45;100938.78;;;22.96;39.72
60725;BME280;59881;36.722;-4.462;2023-03-13T13:02:17;100911.31;;;22.85;39.75
60725;BME280;59881;36.722;-4.462;2023-03-13T13:04:46;100849.78;;;22.44;40.57
60725;BME280;59881;36.722;-4.462;2023-03-13T13:07:24;101002.88;;;23.61;40.40
60725;BME280;59881;36.722;-4.462;2023-03-13T13:12:46;101105.88;;;23.93;39.49
60725;BME280;59881;36.722;-4.462;2023-03-13T13:17:59;100778.25;;;22.51;39.80
60725;BME280;59881;36.722;-4.462;2023-03-13T13:20:27;100974.78;;;24.02;40.46
60725;BME280;59881;36.722;-4.462;2023-03-13T13:22:55;101016.22;;;23.78;42.27
60725;BME280;59881;36.722;-4.462;2023-03-13T13:25:36;100806.53;;;22.62;41.53
60725;BME280;59881;36.722;-4.462;2023-03-13T13:30:49;100585.13;;;21.26;40.15
60725;BME280;59881;36.722;-4.462;2023-03-13T13:36:26;100937.63;;;23.44;41.03
60725;BME280;59881;36.722;-4.462;2023-03-13T13:38:53;100563.53;;;21.28;40.87
60725;BME280;59881;36.722;-4.462;2023-03-13T13:43:47;100459.38;;;20.62;39.98
60725;BME280;59881;36.722;-4.462;2023-03-13T13:48:41;100684.78;;;21.69;39.54
60725;BME280;59881;36.722;-4.462;2023-03-13T13:53:58;100918.47;;;23.62;39.67
60725;BME280;59881;36.722;-4.462;2023-03-13T14:02:10;100824.28;;;23.18;41.31
60725;BME280;59881;36.722;-4.462;2023-03-13T14:04:42;100496.84;;;21.10;39.40
60725;BME280;59881;36.722;-4.462;2023-03-13T14:07:28;100614.97;;;21.23;39.51
60725;BME280;59881;36.722;-4.462;2023-03-13T14:10:03;100902.59;;;23.52;39.57
60725;BME280;59881;36.722;-4.462;2023-03-13T14:12:35;100774.75;;;22.74;39.58